Time;durP1;ratioP1;P1;durP2;ratioP2;P2;SDS_P1;SDS_P2;PMS_P1;PMS_P2;Temp;Humidity;BMP_temperature;BMP_pressure;BME280_temperature;BME280_humidity;BME280_pressure;Samples;Min_cycle;Max_cycle;Signal;HPM_P1;HPM_P2
2022/10/07 15:54:39;;;;;;;;;;;13.50;79.30;;;;;;5070406;28;20000;-96
2022/10/07 15:57:05;;;;;;;;;;;13.20;80.80;;;;;;5071646;28;19917;-96
2022/10/07 15:59:30;;;;;;;;;;;13.10;82.10;;;;;;5053578;28;19908;-95
2022/10/07 16:01:56;;;;;;;;;;;13.10;83.00;;;;;;5071650;28;19909;-95
2022/10/07 16:04:21;;;;;;;;;;;13.10;83.90;;;;;;5053531;28;20349;-96
2022/10/07 16:06:50;;;;;;;;;;;13.10;84.50;;;;;;5053338;28;19928;-95
2022/10/07 16:09:17;;;;;;;;;;;13.10;85.10;;;;;;5053380;28;19943;-95
2022/10/07 16:11:42;;;;;;;;;;;13.10;85.50;;;;;;5052330;28;20425;-95
2022/10/07 16:14:08;;;;;;;;;;;13.10;85.90;;;;;;5056825;28;19966;-96
2022/10/07 16:16:34;;;;;;;;;;;13.10;86.30;;;;;;5053344;28;19913;-95
2022/10/07 16:19:00;;;;;;;;;;;13.10;86.60;;;;;;5053265;28;19913;-96
2022/10/07 16:21:29;;;;;;;;;;;13.10;86.80;;;;;;5053028;28;19915;-96
2022/10/07 16:23:57;;;;;;;;;;;13.00;87.10;;;;;;5053718;28;19909;-95
2022/10/07 16:26:25;;;;;;;;;;;13.00;87.50;;;;;;5053119;28;19909;-95
2022/10/07 16:31:40;;;;;;;;;;;12.90;87.90;;;;;;5073298;28;19975;-95
2022/10/07 16:34:06;;;;;;;;;;;12.80;88.10;;;;;;5033861;28;20388;-95
2022/10/07 16:36:34;;;;;;;;;;;12.80;88.30;;;;;;5051748;28;19909;-95
2022/10/07 16:39:01;;;;;;;;;;;12.80;88.50;;;;;;5052140;28;19912;-96
2022/10/07 16:41:26;;;;;;;;;;;12.80;88.80;;;;;;5071100;28;19967;-96
2022/10/07 16:43:55;;;;;;;;;;;12.70;88.90;;;;;;5052897;28;19909;-95
2022/10/07 16:46:23;;;;;;;;;;;12.70;89.20;;;;;;5053169;28;19908;-95
2022/10/07 16:48:51;;;;;;;;;;;12.60;89.40;;;;;;5053270;28;19963;-96
2022/10/07 16:51:18;;;;;;;;;;;12.60;89.60;;;;;;5052480;28;19909;-94
2022/10/07 16:53:45;;;;;;;;;;;12.50;89.70;;;;;;5048955;28;19944;-96
2022/10/07 16:56:12;;;;;;;;;;;12.50;90.00;;;;;;5049301;28;19909;-96
2022/10/07 16:58:43;;;;;;;;;;;12.50;90.00;;;;;;5050471;28;20397;-96
2022/10/07 17:01:13;;;;;;;;;;;12.50;90.10;;;;;;5050095;28;19908;-94
2022/10/07 17:03:39;;;;;;;;;;;12.40;90.10;;;;;;5044393;28;19981;-95
2022/10/07 17:06:08;;;;;;;;;;;12.40;90.10;;;;;;5029545;28;19913;-95
2022/10/07 17:08:34;;;;;;;;;;;12.40;90.20;;;;;;5036751;28;19916;-94
2022/10/07 17:11:00;;;;;;;;;;;12.30;90.30;;;;;;5036368;28;19917;-94
2022/10/07 17:13:26;;;;;;;;;;;12.30;90.40;;;;;;5039351;28;19917;-95
2022/10/07 17:15:51;;;;;;;;;;;12.30;90.40;;;;;;5037822;28;19983;-96
2022/10/07 17:18:17;;;;;;;;;;;12.30;90.50;;;;;;5038719;28;20373;-96
2022/10/07 17:20:49;;;;;;;;;;;12.20;90.50;;;;;;5036541;28;19970;-94
2022/10/07 17:23:15;;;;;;;;;;;12.20;90.60;;;;;;5049428;28;19962;-94
2022/10/07 17:25:45;;;;;;;;;;;12.20;90.60;;;;;;5056149;28;19908;-95
2022/10/07 17:28:14;;;;;;;;;;;12.10;90.70;;;;;;5055341;28;19959;-96
2022/10/07 17:30:39;;;;;;;;;;;12.10;90.80;;;;;;5055521;28;19943;-94
2022/10/07 17:33:05;;;;;;;;;;;12.00;90.80;;;;;;5049384;28;19917;-95
2022/10/07 17:35:31;;;;;;;;;;;12.00;90.90;;;;;;5035375;28;20071;-95
2022/10/07 17:37:58;;;;;;;;;;;12.00;91.00;;;;;;5030907;28;19913;-95
2022/10/07 17:40:24;;;;;;;;;;;12.00;91.10;;;;;;5035551;28;19910;-96
2022/10/07 17:42:49;;;;;;;;;;;11.90;91.20;;;;;;5034963;28;19956;-94
2022/10/07 17:45:15;;;;;;;;;;;11.80;91.20;;;;;;5038052;28;19984;-94
2022/10/07 17:47:40;;;;;;;;;;;11.80;91.30;;;;;;5019900;28;19910;-95
2022/10/07 17:50:06;;;;;;;;;;;11.80;91.30;;;;;;5026763;28;20416;-93
2022/10/07 17:52:32;;;;;;;;;;;11.80;91.40;;;;;;5037420;28;20016;-93
2022/10/07 17:54:57;;;;;;;;;;;11.70;91.50;;;;;;5037924;28;19913;-94
2022/10/07 17:57:23;;;;;;;;;;;11.60;91.50;;;;;;5037838;28;19913;-94
2022/10/07 17:59:51;;;;;;;;;;;11.60;91.60;;;;;;5037856;28;19909;-94
2022/10/07 18:02:17;;;;;;;;;;;11.60;91.70;;;;;;5037556;28;19958;-95
2022/10/07 18:04:43;;;;;;;;;;;11.50;91.90;;;;;;5037980;28;20319;-94
2022/10/07 18:07:09;;;;;;;;;;;11.40;91.90;;;;;;5037887;28;19909;-94
2022/10/07 18:09:34;;;;;;;;;;;11.40;92.00;;;;;;5037736;28;19920;-93
2022/10/07 18:17:28;;;;;;;;;;;11.20;92.20;;;;;;5053976;28;20320;-93
2022/10/07 18:19:54;;;;;;;;;;;11.20;92.30;;;;;;5037267;28;19925;-96
2022/10/07 18:22:20;;;;;;;;;;;11.10;92.40;;;;;;5037346;28;19955;-95
2022/10/07 18:24:45;;;;;;;;;;;11.10;92.50;;;;;;5033937;28;19966;-93
2022/10/07 18:27:11;;;;;;;;;;;11.00;92.60;;;;;;5038774;28;19913;-96
2022/10/07 18:29:37;;;;;;;;;;;11.00;92.80;;;;;;5037529;28;19909;-95
2022/10/07 18:32:03;;;;;;;;;;;10.90;92.90;;;;;;5037471;28;19915;-94
2022/10/07 18:34:28;;;;;;;;;;;10.90;92.90;;;;;;5037125;28;20361;-94
2022/10/07 18:36:54;;;;;;;;;;;10.80;93.00;;;;;;5038925;28;19965;-94
2022/10/07 18:39:19;;;;;;;;;;;10.80;93.20;;;;;;5044441;28;20360;-94
2022/10/07 18:41:45;;;;;;;;;;;10.70;93.20;;;;;;5049537;28;20345;-96
2022/10/07 18:44:10;;;;;;;;;;;10.70;93.30;;;;;;5037791;28;19931;-94
2022/10/07 18:46:36;;;;;;;;;;;10.60;93.40;;;;;;5037089;28;19909;-95
2022/10/07 18:49:01;;;;;;;;;;;10.60;93.50;;;;;;5037081;28;19913;-93
2022/10/07 18:51:27;;;;;;;;;;;10.50;93.60;;;;;;5037353;28;19924;-94
2022/10/07 18:53:53;;;;;;;;;;;10.50;93.70;;;;;;5054684;28;19925;-94
2022/10/07 18:56:19;;;;;;;;;;;10.40;93.80;;;;;;5037057;28;19909;-96
2022/10/07 18:58:46;;;;;;;;;;;10.40;94.00;;;;;;5054747;28;20349;-94
2022/10/07 19:01:15;;;;;;;;;;;10.30;94.00;;;;;;5036798;28;19909;-94
2022/10/07 19:03:41;;;;;;;;;;;10.30;94.10;;;;;;5052412;28;19995;-93
2022/10/07 19:06:11;;;;;;;;;;;10.20;94.20;;;;;;5050950;28;19992;-96
2022/10/07 19:08:36;;;;;;;;;;;10.20;94.30;;;;;;5036715;28;20327;-93
2022/10/07 19:11:05;;;;;;;;;;;10.20;94.40;;;;;;5036249;28;19912;-94
2022/10/07 19:13:46;;;;;;;;;;;10.10;94.50;;;;;;5037079;28;20411;-96
2022/10/07 19:16:16;;;;;;;;;;;10.10;94.60;;;;;;5031399;28;19916;-94
2022/10/07 19:18:42;;;;;;;;;;;10.00;94.70;;;;;;5036608;28;19909;-95
2022/10/07 19:21:08;;;;;;;;;;;10.00;94.80;;;;;;5036642;28;20254;-92
2022/10/07 19:23:34;;;;;;;;;;;9.90;94.80;;;;;;5035610;28;19920;-92
2022/10/07 19:26:00;;;;;;;;;;;9.90;95.00;;;;;;5053790;28;19917;-92
2022/10/07 19:28:26;;;;;;;;;;;9.90;95.00;;;;;;5054131;28;19913;-94
2022/10/07 19:30:52;;;;;;;;;;;9.80;95.20;;;;;;5036466;28;19909;-93
2022/10/07 19:33:18;;;;;;;;;;;9.80;95.40;;;;;;5036122;28;19913;-94
2022/10/07 19:35:44;;;;;;;;;;;9.70;95.40;;;;;;5031498;28;19913;-93
2022/10/07 19:38:09;;;;;;;;;;;9.60;95.40;;;;;;5025682;28;19921;-93
2022/10/07 19:40:43;;;;;;;;;;;9.60;95.50;;;;;;5035911;28;20396;-94
2022/10/07 19:43:09;;;;;;;;;;;9.50;95.60;;;;;;5023202;28;20289;-96
2022/10/07 19:45:35;;;;;;;;;;;9.50;95.70;;;;;;5034222;28;19909;-95
2022/10/07 19:48:03;;;;;;;;;;;9.40;95.70;;;;;;5026326;28;19913;-94
2022/10/07 19:50:29;;;;;;;;;;;9.40;95.70;;;;;;5017172;28;19992;-95
2022/10/07 19:52:55;;;;;;;;;;;9.40;95.90;;;;;;5021961;28;19921;-94
2022/10/07 19:55:28;;;;;;;;;;;9.40;95.90;;;;;;5036369;28;20004;-94
2022/10/07 19:57:57;;;;;;;;;;;9.30;96.10;;;;;;5036114;28;19969;-95
2022/10/07 20:00:24;;;;;;;;;;;9.30;96.10;;;;;;5054024;28;20357;-94
2022/10/07 20:02:52;;;;;;;;;;;9.30;96.20;;;;;;5036275;28;19919;-94
2022/10/07 20:05:17;;;;;;;;;;;9.30;96.20;;;;;;5036225;28;20039;-96
2022/10/07 20:07:43;;;;;;;;;;;9.30;96.30;;;;;;5037017;28;19956;-96
2022/10/07 20:10:08;;;;;;;;;;;9.20;96.30;;;;;;5037357;28;20000;-95
2022/10/07 20:12:34;;;;;;;;;;;9.20;96.40;;;;;;5037606;28;20391;-96
2022/10/07 20:15:00;;;;;;;;;;;9.20;96.40;;;;;;5029470;28;19971;-96
2022/10/07 20:17:25;;;;;;;;;;;9.10;96.50;;;;;;5021534;28;19909;-96
2022/10/07 20:19:55;;;;;;;;;;;9.10;96.60;;;;;;5033301;28;20012;-96
2022/10/07 20:22:21;;;;;;;;;;;9.10;96.70;;;;;;5022597;28;19909;-95
2022/10/07 20:24:46;;;;;;;;;;;9.00;96.70;;;;;;5019126;28;19916;-96
2022/10/07 20:27:12;;;;;;;;;;;9.00;96.80;;;;;;5017388;28;20011;-95
2022/10/07 20:29:55;;;;;;;;;;;9.00;96.90;;;;;;5017441;28;19992;-93
2022/10/07 20:32:21;;;;;;;;;;;8.90;96.90;;;;;;5017851;28;19910;-95
2022/10/07 20:34:48;;;;;;;;;;;8.90;96.90;;;;;;5017333;28;19916;-94
2022/10/07 20:37:15;;;;;;;;;;;8.80;96.90;;;;;;5035235;28;19909;-96
2022/10/07 20:42:27;;;;;;;;;;;8.80;97.20;;;;;;5040673;28;19916;-96
2022/10/07 20:44:53;;;;;;;;;;;8.70;97.20;;;;;;5021593;28;19909;-95
2022/10/07 20:47:19;;;;;;;;;;;8.70;97.40;;;;;;5021665;28;19915;-94
2022/10/07 20:49:47;;;;;;;;;;;8.70;97.30;;;;;;5022353;28;19909;-95
2022/10/07 20:52:17;;;;;;;;;;;8.60;97.50;;;;;;5022048;28;19916;-96
2022/10/07 20:54:43;;;;;;;;;;;8.60;97.70;;;;;;5022379;28;20284;-95
2022/10/07 20:57:10;;;;;;;;;;;8.60;97.70;;;;;;5020449;28;19909;-95
2022/10/07 20:59:35;;;;;;;;;;;8.50;97.70;;;;;;5037272;28;19963;-96
2022/10/07 21:02:01;;;;;;;;;;;8.50;97.70;;;;;;5020111;28;20300;-95
